メインページ
METAR-TAF:

METAR-TAF

空港 :

仁川国際空港, 大韓民国

緯度: 37-28N, 経度: 126-27E, 海抜: 7m

現時点の気象観測

当レポートは34分前の11:00(UTC)に作成
の風 2kt
気温 10°C
湿度 71%
気圧 1024 hPa
視程10km以上
1,500メートル以下は雲なし、積乱雲なし

METAR: RKSI 141100Z 36002KT CAVOK 10/05 Q1024 NOSIG

時間: 20:34 (11:34 UTC)

予報

当レポートは6時間34分前の05:00(UTC)に作成
予報は14日の 06時(UTC)から 15日の 12時(UTC)まで有効
の風 5kt
視程10km以上
1,500メートル以下は雲なし、積乱雲なし
14日の 11時(UTC)から 14日の 12時(UTC)まで徐々に
東/北東の風 5kt
14日の 19時(UTC)から 14日の 20時(UTC)まで徐々に
視程: 4200m
高度3000ftの雲はほとんどない
高度18000ftの雲は散在している
14日の 23時(UTC)から 14日の 24時(UTC)まで徐々に
南/南東の風 6kt
視程: 6000m
15日の 04時(UTC)から 15日の 05時(UTC)まで徐々に
西/北西の風 6kt
視程10km以上

TAF: RKSI 140500Z 1406/1512 35005KT CAVOK TN06/1421Z TX14/1505Z BECMG 1411/1412 07005KT BECMG 1419/1420 4200 BR FEW030 SCT180 BECMG 1423/1424 15006KT 6000 NSW BECMG 1504/1505 30006KT 9999

4,000以上の空港の気象観測と天気予報(METAR報とTAF報)

利用可能な観測所は地図上に黄色い丸と赤い丸で示す。

丸の上にカーソルを重ねると観測所名を参照できる。

次にクリックすると気象観測と天気予報を参照できる。

マップの切り替え:黒色「×」印の緑ボタンをクリックして拡大、「-」印の緑ボタンをクリックして縮小、緑色の三角印をクリックして隣りの地図に切り替え


METAR-TAF: